createdAt,value
2022-08-22T15:33:43.423Z,24.94
2022-08-22T15:36:25.307Z,24.85
2022-08-22T15:39:00.559Z,24.90
2022-08-22T15:41:37.015Z,24.95
2022-08-22T15:44:32.501Z,24.94
2022-08-22T15:47:28.491Z,24.94
2022-08-22T15:50:05.492Z,25.01
2022-08-22T15:53:14.515Z,24.97
2022-08-22T15:56:06.989Z,24.93
2022-08-22T15:58:38.458Z,24.95
2022-08-22T16:01:26.507Z,24.97
2022-08-22T16:04:02.756Z,24.98
2022-08-22T16:06:56.021Z,24.92
2022-08-22T16:09:36.696Z,24.88
2022-08-22T16:12:28.283Z,24.77
2022-08-22T16:14:56.852Z,24.90
2022-08-22T16:17:47.165Z,24.90
2022-08-22T16:20:22.581Z,24.87
2022-08-22T16:23:01.909Z,24.72
2022-08-22T16:25:47.008Z,24.75
2022-08-22T16:28:56.404Z,24.72
2022-08-22T16:31:29.863Z,24.78
2022-08-22T16:34:18.192Z,24.78
2022-08-22T16:37:12.816Z,24.84
2022-08-22T16:39:46.079Z,24.77
2022-08-22T16:42:22.222Z,24.75
2022-08-22T16:45:08.644Z,24.68
2022-08-22T16:47:43.471Z,24.72
2022-08-22T16:50:23.329Z,24.61
2022-08-22T16:53:30.380Z,24.68
2022-08-22T16:56:28.143Z,24.61
2022-08-22T16:59:23.561Z,24.60
2022-08-22T17:02:38.959Z,24.47
2022-08-22T17:05:30.352Z,24.50
2022-08-22T17:08:24.844Z,24.44
2022-08-22T17:11:05.019Z,24.44
2022-08-22T17:14:04.481Z,24.53
2022-08-22T17:16:54.294Z,24.56
2022-08-22T17:19:52.413Z,24.55
2022-08-22T17:22:44.859Z,24.56
2022-08-22T17:25:46.658Z,24.47
2022-08-22T17:28:27.810Z,24.43
2022-08-22T17:31:11.458Z,24.33
2022-08-22T17:33:41.389Z,24.14
2022-08-22T17:39:29.119Z,24.04
2022-08-22T17:42:29.675Z,23.96
2022-08-22T17:45:12.263Z,23.98
2022-08-22T17:48:01.228Z,24.03
2022-08-22T17:50:35.452Z,24.07
2022-08-22T17:53:29.850Z,24.17
2022-08-22T17:55:57.482Z,24.27
2022-08-22T17:59:14.674Z,24.23
2022-08-22T18:01:59.913Z,24.27
2022-08-22T18:05:07.016Z,24.21
2022-08-22T18:07:56.713Z,24.14
2022-08-22T18:10:54.533Z,24.00
2022-08-22T18:13:37.611Z,23.92
2022-08-22T18:16:12.713Z,24.01
2022-08-22T18:18:53.446Z,24.07
2022-08-22T18:21:36.393Z,24.12
2022-08-22T18:24:10.706Z,24.11
2022-08-22T18:27:34.429Z,24.09
2022-08-22T18:30:18.268Z,24.11
2022-08-22T18:33:32.765Z,24.15
2022-08-22T18:36:10.241Z,24.08
